createdAt,value
2023-03-23T15:58:13.355Z,3.00
2023-03-23T16:00:43.954Z,2.70
2023-03-23T16:03:22.842Z,2.30
2023-03-23T16:05:52.103Z,2.60
2023-03-23T16:08:21.415Z,2.30
2023-03-23T16:10:51.192Z,2.10
2023-03-23T16:13:19.879Z,2.00
2023-03-23T16:15:48.872Z,2.00
2023-03-23T16:18:19.810Z,2.00
2023-03-23T16:20:49.727Z,1.80
2023-03-23T16:23:19.026Z,2.30
2023-03-23T16:25:47.704Z,2.70
2023-03-23T16:28:17.443Z,2.50
2023-03-23T16:30:46.274Z,2.30
2023-03-23T16:33:15.213Z,2.40
2023-03-23T16:35:44.537Z,2.80
2023-03-23T16:38:16.699Z,2.60
2023-03-23T16:40:47.166Z,3.40
2023-03-23T16:43:16.892Z,2.20
2023-03-23T16:45:47.473Z,2.00
2023-03-23T16:48:18.268Z,2.20
2023-03-23T16:50:48.097Z,2.10
2023-03-23T16:53:17.484Z,2.60
2023-03-23T16:55:48.698Z,2.90
2023-03-23T16:58:18.567Z,2.60
2023-03-23T17:00:52.743Z,2.50
2023-03-23T17:03:22.469Z,2.30
2023-03-23T17:05:52.835Z,2.80
2023-03-23T17:08:21.718Z,2.50
2023-03-23T17:10:51.831Z,2.70
2023-03-23T17:13:21.722Z,3.00
2023-03-23T17:15:53.789Z,3.00
2023-03-23T17:18:25.414Z,3.20
2023-03-23T17:20:55.127Z,3.40
2023-03-23T17:23:24.890Z,2.60
2023-03-23T17:25:55.262Z,2.70
2023-03-23T17:28:24.707Z,3.00
2023-03-23T17:30:55.097Z,2.30
2023-03-23T17:33:25.030Z,2.80
2023-03-23T17:35:55.490Z,3.40
2023-03-23T17:38:25.761Z,2.90
2023-03-23T17:40:59.414Z,2.90
2023-03-23T17:43:30.918Z,4.00
2023-03-23T17:46:01.261Z,4.10
2023-03-23T17:48:31.517Z,3.30
2023-03-23T17:51:02.786Z,3.40
2023-03-23T17:53:40.353Z,3.70
2023-03-23T17:56:13.026Z,4.10
2023-03-23T17:58:42.703Z,3.90
2023-03-23T18:01:13.996Z,3.60
2023-03-23T18:03:45.365Z,3.80
2023-03-23T18:06:15.625Z,3.50
2023-03-23T18:08:46.519Z,4.10
2023-03-23T18:11:18.343Z,4.40
2023-03-23T18:13:49.594Z,4.20
2023-03-23T18:16:24.398Z,3.60
2023-03-23T18:18:56.421Z,4.10
2023-03-23T18:21:27.755Z,3.60
2023-03-23T18:23:59.527Z,3.70
2023-03-23T18:26:33.244Z,4.40
2023-03-23T18:29:04.619Z,5.00
2023-03-23T18:31:40.724Z,4.20
2023-03-23T18:34:11.609Z,3.80
2023-03-23T18:36:42.482Z,3.80
2023-03-23T18:39:13.604Z,3.80
2023-03-23T18:41:44.485Z,3.60
2023-03-23T18:44:16.411Z,3.80
2023-03-23T18:46:46.744Z,3.30
2023-03-23T18:49:17.168Z,3.90
2023-03-23T18:51:50.127Z,3.40
2023-03-23T18:54:20.526Z,4.20
2023-03-23T18:56:51.419Z,3.70
2023-03-23T18:59:25.332Z,4.50
2023-03-23T19:01:56.518Z,4.10
2023-03-23T19:04:32.921Z,4.20
2023-03-23T19:07:04.567Z,4.70
2023-03-23T19:09:36.225Z,3.70
2023-03-23T19:12:13.346Z,4.60
2023-03-23T19:14:45.732Z,4.40
2023-03-23T19:17:19.254Z,4.90
2023-03-23T19:19:50.434Z,4.40
2023-03-23T19:22:22.005Z,4.70
2023-03-23T19:24:54.950Z,4.80
2023-03-23T19:27:26.417Z,6.70
2023-03-23T19:29:56.904Z,7.80
2023-03-23T19:32:29.922Z,5.70
2023-03-23T19:35:03.381Z,5.70
2023-03-23T19:37:45.248Z,4.90
2023-03-23T19:40:49.877Z,5.50
2023-03-23T19:43:09.953Z,5.40
2023-03-23T19:45:42.860Z,5.30
2023-03-23T19:48:13.926Z,4.90
2023-03-23T19:50:49.208Z,4.50
2023-03-23T19:53:21.567Z,4.50
2023-03-23T19:55:55.189Z,4.30
2023-03-23T19:58:28.380Z,3.50
2023-03-23T20:01:03.933Z,4.40
2023-03-23T20:03:36.815Z,4.60
2023-03-23T20:06:13.045Z,4.30
2023-03-23T20:08:48.776Z,4.40
2023-03-23T20:11:23.314Z,4.00
2023-03-23T20:13:56.653Z,4.40
2023-03-23T20:16:29.218Z,4.60
2023-03-23T20:19:02.929Z,4.30
2023-03-23T20:21:36.293Z,3.80
2023-03-23T20:24:09.530Z,4.30
2023-03-23T20:26:42.518Z,3.90
2023-03-23T20:29:15.163Z,4.10
2023-03-23T20:31:47.096Z,4.30
2023-03-23T20:34:29.728Z,4.40
2023-03-23T20:37:02.849Z,4.70
2023-03-23T20:39:38.136Z,3.90
2023-03-23T20:42:09.092Z,4.60
2023-03-23T20:44:40.675Z,4.40
2023-03-23T20:47:14.598Z,5.00
2023-03-23T20:49:53.184Z,4.90
2023-03-23T20:52:26.377Z,4.90
2023-03-23T20:54:57.496Z,4.50
2023-03-23T20:57:28.041Z,4.50
2023-03-23T20:59:58.587Z,4.50
2023-03-23T21:02:30.536Z,4.30
2023-03-23T21:05:06.991Z,4.00
2023-03-23T21:07:37.476Z,6.30
2023-03-23T21:10:10.057Z,5.90
2023-03-23T21:12:40.307Z,4.40
2023-03-23T21:15:10.466Z,4.20
2023-03-23T21:17:41.309Z,3.40
2023-03-23T21:20:12.411Z,4.00
2023-03-23T21:22:43.948Z,3.90
2023-03-23T21:25:15.827Z,3.90
2023-03-23T21:27:44.609Z,3.90
2023-03-23T21:30:13.870Z,3.80
2023-03-23T21:32:43.327Z,3.90
2023-03-23T21:35:13.025Z,3.20
2023-03-23T21:37:42.327Z,3.60
2023-03-23T21:40:14.388Z,3.40
2023-03-23T21:42:44.707Z,3.50
2023-03-23T21:45:18.907Z,3.50
2023-03-23T21:47:48.971Z,3.50
2023-03-23T21:50:18.349Z,3.20
2023-03-23T21:52:51.334Z,3.00
2023-03-23T21:55:20.327Z,3.70
2023-03-23T21:57:49.308Z,3.00
2023-03-23T22:00:19.214Z,3.50
2023-03-23T22:02:49.085Z,2.90
2023-03-23T22:05:18.418Z,3.60
2023-03-23T22:07:48.578Z,3.40
2023-03-23T22:10:17.648Z,3.40
2023-03-23T22:12:48.274Z,3.30
2023-03-23T22:15:18.401Z,2.90
2023-03-23T22:17:47.233Z,2.80
2023-03-23T22:20:16.182Z,3.10
2023-03-23T22:22:44.956Z,2.90
2023-03-23T22:25:14.268Z,2.60
2023-03-23T22:27:43.366Z,2.70
2023-03-23T22:30:13.178Z,3.40
2023-03-23T22:32:41.959Z,3.60
2023-03-23T22:35:13.110Z,3.50
2023-03-23T22:37:41.917Z,3.70
2023-03-23T22:40:12.008Z,3.20
2023-03-23T22:42:41.106Z,3.50
2023-03-23T22:45:10.104Z,3.20
2023-03-23T22:47:39.346Z,3.50
2023-03-23T22:50:09.833Z,3.00
2023-03-23T22:52:38.965Z,3.00
2023-03-23T22:55:09.213Z,3.00
2023-03-23T22:57:37.948Z,2.90
2023-03-23T23:00:15.204Z,2.80
2023-03-23T23:02:44.239Z,3.00
2023-03-23T23:05:13.694Z,2.80
2023-03-23T23:07:43.039Z,3.20
2023-03-23T23:10:11.827Z,3.20
2023-03-23T23:12:42.674Z,3.10
2023-03-23T23:15:13.493Z,3.40
2023-03-23T23:17:42.716Z,2.70
2023-03-23T23:20:13.261Z,3.10
2023-03-23T23:22:44.523Z,3.20
2023-03-23T23:25:14.165Z,2.90
2023-03-23T23:27:43.470Z,3.10
2023-03-23T23:30:12.968Z,3.10
2023-03-23T23:32:43.312Z,3.60
2023-03-23T23:35:14.242Z,3.30
2023-03-23T23:37:43.040Z,3.30
2023-03-23T23:40:15.699Z,3.30
2023-03-23T23:42:46.603Z,3.70
2023-03-23T23:45:16.465Z,3.60
2023-03-23T23:47:47.070Z,3.60
2023-03-23T23:50:16.064Z,3.20
2023-03-23T23:52:45.462Z,3.10
2023-03-23T23:55:18.362Z,2.80
2023-03-23T23:57:48.484Z,3.40
